sensor_id;sensor_type;location;lat;lon;timestamp;P1;P2;P0
72509;PMS5003;60532;56.114;40.350;2023-07-28T14:51:42;7.00;7.00;6.00
72509;PMS5003;60532;56.114;40.350;2023-07-28T14:53:49;6.75;5.75;4.00
72509;PMS5003;60532;56.114;40.350;2023-07-28T14:55:50;8.67;8.00;6.00
72509;PMS5003;60532;56.114;40.350;2023-07-28T14:57:50;11.00;6.00;5.00
72509;PMS5003;60532;56.114;40.350;2023-07-28T14:59:51;9.25;9.00;6.00
72509;PMS5003;60532;56.114;40.350;2023-07-28T15:01:52;7.67;7.67;6.67
72509;PMS5003;60532;56.114;40.350;2023-07-28T15:03:52;9.00;7.00;5.33
72509;PMS5003;60532;56.114;40.350;2023-07-28T15:05:53;7.00;7.00;6.00
72509;PMS5003;60532;56.114;40.350;2023-07-28T15:07:54;6.25;6.00;5.00
72509;PMS5003;60532;56.114;40.350;2023-07-28T15:09:54;10.00;6.00;5.67
72509;PMS5003;60532;56.114;40.350;2023-07-28T15:11:55;6.00;6.00;5.67
72509;PMS5003;60532;56.114;40.350;2023-07-28T15:13:55;7.00;6.67;4.67
72509;PMS5003;60532;56.114;40.350;2023-07-28T15:15:56;9.00;9.00;6.00
72509;PMS5003;60532;56.114;40.350;2023-07-28T15:17:56;8.33;6.33;5.00
72509;PMS5003;60532;56.114;40.350;2023-07-28T15:19:57;8.00;7.33;4.33
72509;PMS5003;60532;56.114;40.350;2023-07-28T15:21:57;9.67;8.00;6.00
72509;PMS5003;60532;56.114;40.350;2023-07-28T15:23:58;7.00;7.00;5.67
72509;PMS5003;60532;56.114;40.350;2023-07-28T15:25:58;6.00;6.00;4.67
72509;PMS5003;60532;56.114;40.350;2023-07-28T15:27:59;12.00;9.00;7.00
72509;PMS5003;60532;56.114;40.350;2023-07-28T15:29:59;10.00;8.33;7.33
72509;PMS5003;60532;56.114;40.350;2023-07-28T15:32:00;8.00;8.00;6.33
72509;PMS5003;60532;56.114;40.350;2023-07-28T15:34:00;6.00;5.00;3.33
72509;PMS5003;60532;56.114;40.350;2023-07-28T15:36:01;8.33;8.33;6.33
72509;PMS5003;60532;56.114;40.350;2023-07-28T15:38:01;10.00;10.00;8.67
72509;PMS5003;60532;56.114;40.350;2023-07-28T15:40:02;9.00;9.00;6.00
72509;PMS5003;60532;56.114;40.350;2023-07-28T15:42:02;10.25;9.00;7.00
72509;PMS5003;60532;56.114;40.350;2023-07-28T15:44:03;10.00;9.00;7.00
72509;PMS5003;60532;56.114;40.350;2023-07-28T15:46:03;12.00;12.00;9.00
72509;PMS5003;60532;56.114;40.350;2023-07-28T15:48:04;13.00;10.50;6.25
72509;PMS5003;60532;56.114;40.350;2023-07-28T15:50:05;13.33;12.67;8.33
72509;PMS5003;60532;56.114;40.350;2023-07-28T15:52:06;10.00;10.00;8.00
72509;PMS5003;60532;56.114;40.350;2023-07-28T15:54:06;13.33;12.00;7.67
72509;PMS5003;60532;56.114;40.350;2023-07-28T15:56:08;9.00;8.00;6.00
72509;PMS5003;60532;56.114;40.350;2023-07-28T15:58:08;11.33;9.00;6.00
72509;PMS5003;60532;56.114;40.350;2023-07-28T16:00:09;9.00;9.00;5.67
72509;PMS5003;60532;56.114;40.350;2023-07-28T16:02:10;8.50;7.00;6.00
72509;PMS5003;60532;56.114;40.350;2023-07-28T16:04:11;7.00;6.67;5.00
72509;PMS5003;60532;56.114;40.350;2023-07-28T16:06:11;6.67;6.67;5.00
72509;PMS5003;60532;56.114;40.350;2023-07-28T16:08:12;7.00;4.67;4.00
72509;PMS5003;60532;56.114;40.350;2023-07-28T16:10:12;5.00;4.00;3.33
72509;PMS5003;60532;56.114;40.350;2023-07-28T16:12:13;4.00;4.00;3.00
72509;PMS5003;60532;56.114;40.350;2023-07-28T16:14:13;5.00;5.00;4.00
72509;PMS5003;60532;56.114;40.350;2023-07-28T16:16:14;2.33;2.33;2.33
72509;PMS5003;60532;56.114;40.350;2023-07-28T16:18:14;8.00;5.00;4.00
72509;PMS5003;60532;56.114;40.350;2023-07-28T16:20:15;1.33;1.33;1.33
72509;PMS5003;60532;56.114;40.350;2023-07-28T16:22:15;5.00;3.67;3.00
72509;PMS5003;60532;56.114;40.350;2023-07-28T16:24:17;3.75;3.75;2.50
72509;PMS5003;60532;56.114;40.350;2023-07-28T16:26:18;2.00;2.00;2.00
72509;PMS5003;60532;56.114;40.350;2023-07-28T16:28:18;5.00;5.00;3.67
72509;PMS5003;60532;56.114;40.350;2023-07-28T16:30:19;3.67;3.67;3.33
72509;PMS5003;60532;56.114;40.350;2023-07-28T16:32:19;5.00;5.00;4.00
72509;PMS5003;60532;56.114;40.350;2023-07-28T16:34:20;5.50;4.25;3.25
72509;PMS5003;60532;56.114;40.350;2023-07-28T16:36:20;5.00;5.00;3.33
72509;PMS5003;60532;56.114;40.350;2023-07-28T16:38:21;6.00;4.00;4.00
72509;PMS5003;60532;56.114;40.350;2023-07-28T16:40:21;2.00;2.00;2.00
72509;PMS5003;60532;56.114;40.350;2023-07-28T16:42:22;4.00;3.33;2.33
72509;PMS5003;60532;56.114;40.350;2023-07-28T16:44:22;4.00;4.00;3.00
72509;PMS5003;60532;56.114;40.350;2023-07-28T16:46:23;8.00;6.00;3.00
72509;PMS5003;60532;56.114;40.350;2023-07-28T16:48:23;5.33;5.00;3.00
72509;PMS5003;60532;56.114;40.350;2023-07-28T16:50:24;4.33;4.33;3.00
72509;PMS5003;60532;56.114;40.350;2023-07-28T16:52:24;4.67;4.00;2.33
72509;PMS5003;60532;56.114;40.350;2023-07-28T16:54:27;6.50;4.50;3.00
72509;PMS5003;60532;56.114;40.350;2023-07-28T16:56:27;5.25;4.75;3.75
72509;PMS5003;60532;56.114;40.350;2023-07-28T16:58:28;8.67;5.33;3.33
72509;PMS5003;60532;56.114;40.350;2023-07-28T17:00:28;4.00;4.00;4.00
72509;PMS5003;60532;56.114;40.350;2023-07-28T17:02:29;6.33;4.33;3.00
72509;PMS5003;60532;56.114;40.350;2023-07-28T17:04:29;6.00;4.00;3.00
72509;PMS5003;60532;56.114;40.350;2023-07-28T17:06:30;4.67;4.00;3.33
72509;PMS5003;60532;56.114;40.350;2023-07-28T17:08:30;3.67;3.67;3.00
72509;PMS5003;60532;56.114;40.350;2023-07-28T17:10:31;5.00;4.00;3.00
72509;PMS5003;60532;56.114;40.350;2023-07-28T17:12:31;3.33;2.00;2.00
72509;PMS5003;60532;56.114;40.350;2023-07-28T17:14:32;4.00;3.00;3.00
72509;PMS5003;60532;56.114;40.350;2023-07-28T17:16:32;5.67;5.67;4.00
72509;PMS5003;60532;56.114;40.350;2023-07-28T17:18:33;3.67;3.67;2.67
72509;PMS5003;60532;56.114;40.350;2023-07-28T17:20:33;5.33;4.67;3.33
72509;PMS5003;60532;56.114;40.350;2023-07-28T17:22:34;4.00;4.00;3.00
72509;PMS5003;60532;56.114;40.350;2023-07-28T17:24:34;3.67;3.67;3.00
72509;PMS5003;60532;56.114;40.350;2023-07-28T17:26:35;4.67;4.67;3.00
72509;PMS5003;60532;56.114;40.350;2023-07-28T17:28:35;5.67;5.67;4.67
72509;PMS5003;60532;56.114;40.350;2023-07-28T17:30:36;3.00;3.00;3.00
72509;PMS5003;60532;56.114;40.350;2023-07-28T17:32:36;5.67;5.33;4.00
72509;PMS5003;60532;56.114;40.350;2023-07-28T17:34:37;6.67;6.67;4.00
72509;PMS5003;60532;56.114;40.350;2023-07-28T17:36:37;8.00;4.67;4.00
72509;PMS5003;60532;56.114;40.350;2023-07-28T17:38:38;5.00;5.00;4.00
72509;PMS5003;60532;56.114;40.350;2023-07-28T17:40:38;5.33;5.33;4.33
72509;PMS5003;60532;56.114;40.350;2023-07-28T17:42:39;6.00;4.00;3.00
72509;PMS5003;60532;56.114;40.350;2023-07-28T17:44:39;5.00;5.00;4.00
72509;PMS5003;60532;56.114;40.350;2023-07-28T17:46:40;5.33;5.00;4.00
72509;PMS5003;60532;56.114;40.350;2023-07-28T17:48:40;6.00;5.00;3.00
72509;PMS5003;60532;56.114;40.350;2023-07-28T17:50:41;7.33;5.67;4.67
72509;PMS5003;60532;56.114;40.350;2023-07-28T17:52:42;5.33;5.00;4.00
72509;PMS5003;60532;56.114;40.350;2023-07-28T17:54:42;4.75;4.75;4.00
72509;PMS5003;60532;56.114;40.350;2023-07-28T17:56:43;4.33;4.33;3.67
72509;PMS5003;60532;56.114;40.350;2023-07-28T17:58:43;6.67;5.00;4.00
72509;PMS5003;60532;56.114;40.350;2023-07-28T18:00:44;4.00;4.00;3.00
72509;PMS5003;60532;56.114;40.350;2023-07-28T18:02:44;6.00;5.33;4.00
72509;PMS5003;60532;56.114;40.350;2023-07-28T18:04:45;4.00;4.00;4.00
72509;PMS5003;60532;56.114;40.350;2023-07-28T18:06:45;5.33;5.00;4.33
72509;PMS5003;60532;56.114;40.350;2023-07-28T18:08:46;8.67;8.00;6.00
72509;PMS5003;60532;56.114;40.350;2023-07-28T18:10:46;6.00;6.00;4.33
72509;PMS5003;60532;56.114;40.350;2023-07-28T18:12:47;8.33;7.00;5.33
72509;PMS5003;60532;56.114;40.350;2023-07-28T18:14:47;7.00;6.00;4.33
72509;PMS5003;60532;56.114;40.350;2023-07-28T18:16:48;6.33;6.33;5.00
72509;PMS5003;60532;56.114;40.350;2023-07-28T18:18:48;9.00;6.00;5.00
72509;PMS5003;60532;56.114;40.350;2023-07-28T18:20:49;8.33;7.00;5.00
72509;PMS5003;60532;56.114;40.350;2023-07-28T18:22:49;7.33;6.00;5.00
72509;PMS5003;60532;56.114;40.350;2023-07-28T18:24:49;6.67;5.33;4.67
72509;PMS5003;60532;56.114;40.350;2023-07-28T18:26:50;6.00;4.00;2.33
72509;PMS5003;60532;56.114;40.350;2023-07-28T18:28:50;7.67;7.67;4.67
72509;PMS5003;60532;56.114;40.350;2023-07-28T18:30:51;8.33;6.33;4.67
72509;PMS5003;60532;56.114;40.350;2023-07-28T18:32:51;7.67;7.00;5.00
72509;PMS5003;60532;56.114;40.350;2023-07-28T18:34:52;9.00;8.33;5.00
72509;PMS5003;60532;56.114;40.350;2023-07-28T18:36:52;8.33;7.00;5.00
72509;PMS5003;60532;56.114;40.350;2023-07-28T18:38:53;7.00;7.00;6.00
72509;PMS5003;60532;56.114;40.350;2023-07-28T18:40:53;8.67;7.00;5.33
72509;PMS5003;60532;56.114;40.350;2023-07-28T18:42:54;7.00;7.00;6.00
72509;PMS5003;60532;56.114;40.350;2023-07-28T18:44:54;5.00;5.00;5.00
72509;PMS5003;60532;56.114;40.350;2023-07-28T18:46:57;9.00;8.00;6.00
72509;PMS5003;60532;56.114;40.350;2023-07-28T18:48:58;11.00;8.00;6.33
72509;PMS5003;60532;56.114;40.350;2023-07-28T18:50:58;11.67;8.67;5.67
72509;PMS5003;60532;56.114;40.350;2023-07-28T18:53:01;8.25;8.25;6.75
72509;PMS5003;60532;56.114;40.350;2023-07-28T18:55:02;12.67;11.00;7.67
72509;PMS5003;60532;56.114;40.350;2023-07-28T18:57:03;9.67;9.33;7.00
72509;PMS5003;60532;56.114;40.350;2023-07-28T18:59:03;10.75;10.00;7.50
72509;PMS5003;60532;56.114;40.350;2023-07-28T19:01:04;11.00;8.67;6.67
72509;PMS5003;60532;56.114;40.350;2023-07-28T19:03:05;9.50;7.50;6.75
72509;PMS5003;60532;56.114;40.350;2023-07-28T19:05:07;10.25;8.75;6.00
72509;PMS5003;60532;56.114;40.350;2023-07-28T19:07:08;7.25;7.25;6.00
72509;PMS5003;60532;56.114;40.350;2023-07-28T19:09:09;8.67;8.67;6.33
72509;PMS5003;60532;56.114;40.350;2023-07-28T19:11:09;8.00;7.67;7.00
72509;PMS5003;60532;56.114;40.350;2023-07-28T19:13:10;11.67;9.33;6.00
72509;PMS5003;60532;56.114;40.350;2023-07-28T19:15:10;8.00;6.67;4.33
72509;PMS5003;60532;56.114;40.350;2023-07-28T19:17:10;7.00;7.00;5.00
72509;PMS5003;60532;56.114;40.350;2023-07-28T19:19:11;6.00;6.00;5.00
72509;PMS5003;60532;56.114;40.350;2023-07-28T19:21:11;6.33;6.33;5.33
72509;PMS5003;60532;56.114;40.350;2023-07-28T19:23:14;7.50;6.25;4.00
72509;PMS5003;60532;56.114;40.350;2023-07-28T19:25:15;7.33;7.00;6.00
72509;PMS5003;60532;56.114;40.350;2023-07-28T19:27:17;7.00;7.00;5.00
72509;PMS5003;60532;56.114;40.350;2023-07-28T19:29:18;5.25;5.00;4.00
72509;PMS5003;60532;56.114;40.350;2023-07-28T19:31:21;5.25;5.25;3.25
72509;PMS5003;60532;56.114;40.350;2023-07-28T19:33:21;5.67;5.67;4.67
72509;PMS5003;60532;56.114;40.350;2023-07-28T19:35:21;6.00;6.00;4.67
72509;PMS5003;60532;56.114;40.350;2023-07-28T19:37:22;6.00;6.00;4.67
72509;PMS5003;60532;56.114;40.350;2023-07-28T19:39:23;9.00;8.00;6.00
72509;PMS5003;60532;56.114;40.350;2023-07-28T19:41:23;7.50;6.50;4.75
72509;PMS5003;60532;56.114;40.350;2023-07-28T19:43:25;5.25;5.00;4.00
72509;PMS5003;60532;56.114;40.350;2023-07-28T19:45:25;7.33;7.33;5.33
72509;PMS5003;60532;56.114;40.350;2023-07-28T19:47:26;6.67;6.00;4.33
72509;PMS5003;60532;56.114;40.350;2023-07-28T19:49:26;5.33;4.33;3.33
72509;PMS5003;60532;56.114;40.350;2023-07-28T19:51:27;8.00;8.00;5.33
72509;PMS5003;60532;56.114;40.350;2023-07-28T19:53:27;6.67;6.67;4.33
72509;PMS5003;60532;56.114;40.350;2023-07-28T19:55:28;7.33;6.00;4.00
72509;PMS5003;60532;56.114;40.350;2023-07-28T19:57:31;9.00;6.00;4.50
72509;PMS5003;60532;56.114;40.350;2023-07-28T19:59:33;6.00;6.00;4.67
72509;PMS5003;60532;56.114;40.350;2023-07-28T20:01:34;9.25;6.00;4.50
72509;PMS5003;60532;56.114;40.350;2023-07-28T20:03:34;9.33;6.00;5.00
72509;PMS5003;60532;56.114;40.350;2023-07-28T20:05:35;7.67;7.67;6.00
72509;PMS5003;60532;56.114;40.350;2023-07-28T20:07:35;8.50;7.00;5.50
72509;PMS5003;60532;56.114;40.350;2023-07-28T20:09:36;9.33;8.00;6.00
72509;PMS5003;60532;56.114;40.350;2023-07-28T20:11:37;9.50;8.50;6.25
72509;PMS5003;60532;56.114;40.350;2023-07-28T20:13:37;10.00;7.67;6.00
72509;PMS5003;60532;56.114;40.350;2023-07-28T20:15:38;7.00;7.00;4.00
72509;PMS5003;60532;56.114;40.350;2023-07-28T20:17:38;9.67;8.33;6.67
72509;PMS5003;60532;56.114;40.350;2023-07-28T20:19:39;8.33;8.33;6.00
72509;PMS5003;60532;56.114;40.350;2023-07-28T20:21:39;8.33;8.33;7.00
72509;PMS5003;60532;56.114;40.350;2023-07-28T20:23:39;8.00;8.00;6.00
72509;PMS5003;60532;56.114;40.350;2023-07-28T20:25:40;12.00;10.33;6.67
72509;PMS5003;60532;56.114;40.350;2023-07-28T20:27:41;7.67;7.67;5.33
72509;PMS5003;60532;56.114;40.350;2023-07-28T20:29:42;10.75;10.75;6.00
72509;PMS5003;60532;56.114;40.350;2023-07-28T20:31:42;8.67;7.33;6.00
72509;PMS5003;60532;56.114;40.350;2023-07-28T20:33:43;9.33;7.67;6.00
72509;PMS5003;60532;56.114;40.350;2023-07-28T20:35:43;12.00;7.00;5.00
72509;PMS5003;60532;56.114;40.350;2023-07-28T20:37:44;8.67;8.67;5.33
72509;PMS5003;60532;56.114;40.350;2023-07-28T20:39:45;8.75;8.75;6.00
72509;PMS5003;60532;56.114;40.350;2023-07-28T20:41:46;11.25;9.50;6.00
72509;PMS5003;60532;56.114;40.350;2023-07-28T20:43:47;11.75;10.25;6.50
72509;PMS5003;60532;56.114;40.350;2023-07-28T20:45:48;8.67;8.00;6.00
72509;PMS5003;60532;56.114;40.350;2023-07-28T20:47:48;11.00;9.50;6.50
72509;PMS5003;60532;56.114;40.350;2023-07-28T20:49:49;9.00;9.00;6.33
72509;PMS5003;60532;56.114;40.350;2023-07-28T20:51:49;8.00;6.00;4.33
72509;PMS5003;60532;56.114;40.350;2023-07-28T20:53:50;7.33;7.33;5.00
72509;PMS5003;60532;56.114;40.350;2023-07-28T20:55:50;6.33;5.67;4.00
72509;PMS5003;60532;56.114;40.350;2023-07-28T20:57:51;6.67;6.67;5.67
72509;PMS5003;60532;56.114;40.350;2023-07-28T20:59:51;7.00;6.33;5.00
72509;PMS5003;60532;56.114;40.350;2023-07-28T21:01:52;5.00;5.00;4.00
72509;PMS5003;60532;56.114;40.350;2023-07-28T21:03:52;6.67;6.67;5.00
72509;PMS5003;60532;56.114;40.350;2023-07-28T21:05:53;9.33;6.67;5.00
72509;PMS5003;60532;56.114;40.350;2023-07-28T21:07:53;8.33;5.33;4.00
72509;PMS5003;60532;56.114;40.350;2023-07-28T21:09:54;10.67;8.67;5.33
72509;PMS5003;60532;56.114;40.350;2023-07-28T21:11:55;7.25;6.00;5.00
72509;PMS5003;60532;56.114;40.350;2023-07-28T21:13:57;9.00;7.00;5.00
72509;PMS5003;60532;56.114;40.350;2023-07-28T21:15:57;6.67;6.67;5.00
72509;PMS5003;60532;56.114;40.350;2023-07-28T21:17:59;8.00;6.00;5.00
72509;PMS5003;60532;56.114;40.350;2023-07-28T21:20:00;6.00;6.00;4.00
72509;PMS5003;60532;56.114;40.350;2023-07-28T21:22:00;5.33;5.33;4.33
72509;PMS5003;60532;56.114;40.350;2023-07-28T21:24:02;9.00;7.75;5.00
72509;PMS5003;60532;56.114;40.350;2023-07-28T21:26:02;6.00;6.00;5.00
72509;PMS5003;60532;56.114;40.350;2023-07-28T21:28:05;9.25;9.25;5.25
72509;PMS5003;60532;56.114;40.350;2023-07-28T21:30:06;7.67;7.00;5.00
72509;PMS5003;60532;56.114;40.350;2023-07-28T21:32:07;6.75;6.00;4.75
72509;PMS5003;60532;56.114;40.350;2023-07-28T21:34:07;5.33;4.67;3.33
72509;PMS5003;60532;56.114;40.350;2023-07-28T21:36:12;9.50;6.00;4.50
72509;PMS5003;60532;56.114;40.350;2023-07-28T21:38:12;6.67;6.67;5.67
72509;PMS5003;60532;56.114;40.350;2023-07-28T21:40:13;7.00;7.00;5.33
72509;PMS5003;60532;56.114;40.350;2023-07-28T21:42:13;6.00;6.00;4.00
72509;PMS5003;60532;56.114;40.350;2023-07-28T21:44:14;7.00;7.00;4.33
72509;PMS5003;60532;56.114;40.350;2023-07-28T21:46:14;8.00;7.00;5.00
72509;PMS5003;60532;56.114;40.350;2023-07-28T21:48:15;7.00;4.67;2.67
72509;PMS5003;60532;56.114;40.350;2023-07-28T21:50:15;6.00;6.00;5.67
72509;PMS5003;60532;56.114;40.350;2023-07-28T21:52:16;5.67;5.67;4.00
72509;PMS5003;60532;56.114;40.350;2023-07-28T21:54:16;7.00;6.67;5.00
72509;PMS5003;60532;56.114;40.350;2023-07-28T21:56:17;6.00;6.00;5.00
72509;PMS5003;60532;56.114;40.350;2023-07-28T21:58:17;7.67;5.00;4.00
72509;PMS5003;60532;56.114;40.350;2023-07-28T22:00:17;5.33;5.00;4.00
72509;PMS5003;60532;56.114;40.350;2023-07-28T22:02:18;7.67;7.00;5.00
72509;PMS5003;60532;56.114;40.350;2023-07-28T22:04:19;6.25;5.75;4.75
72509;PMS5003;60532;56.114;40.350;2023-07-28T22:06:19;6.50;5.50;4.00
72509;PMS5003;60532;56.114;40.350;2023-07-28T22:08:20;5.33;5.00;4.00
72509;PMS5003;60532;56.114;40.350;2023-07-28T22:10:20;5.00;4.67;3.67
72509;PMS5003;60532;56.114;40.350;2023-07-28T22:12:21;7.67;6.00;4.33
72509;PMS5003;60532;56.114;40.350;2023-07-28T22:14:21;4.00;4.00;3.33
72509;PMS5003;60532;56.114;40.350;2023-07-28T22:16:22;5.00;5.00;4.00
72509;PMS5003;60532;56.114;40.350;2023-07-28T22:18:22;4.00;4.00;3.00
72509;PMS5003;60532;56.114;40.350;2023-07-28T22:20:25;5.67;4.67;3.67
72509;PMS5003;60532;56.114;40.350;2023-07-28T22:22:26;7.50;5.25;3.50
72509;PMS5003;60532;56.114;40.350;2023-07-28T22:24:26;5.00;5.00;4.00
72509;PMS5003;60532;56.114;40.350;2023-07-28T22:26:27;5.33;5.33;4.33
72509;PMS5003;60532;56.114;40.350;2023-07-28T22:28:27;6.00;6.00;4.00
72509;PMS5003;60532;56.114;40.350;2023-07-28T22:30:28;6.67;5.00;4.00
72509;PMS5003;60532;56.114;40.350;2023-07-28T22:32:28;6.33;6.00;4.00
72509;PMS5003;60532;56.114;40.350;2023-07-28T22:34:29;6.00;5.00;4.00
72509;PMS5003;60532;56.114;40.350;2023-07-28T22:36:29;4.00;4.00;3.33
72509;PMS5003;60532;56.114;40.350;2023-07-28T22:38:29;5.33;5.00;3.00
72509;PMS5003;60532;56.114;40.350;2023-07-28T22:40:30;4.00;4.00;3.00
72509;PMS5003;60532;56.114;40.350;2023-07-28T22:42:30;6.33;6.00;5.00
72509;PMS5003;60532;56.114;40.350;2023-07-28T22:44:31;10.00;6.33;5.00
72509;PMS5003;60532;56.114;40.350;2023-07-28T22:46:32;5.67;5.67;4.00
72509;PMS5003;60532;56.114;40.350;2023-07-28T22:48:33;5.00;3.50;2.00
72509;PMS5003;60532;56.114;40.350;2023-07-28T22:50:33;5.33;5.33;4.33
72509;PMS5003;60532;56.114;40.350;2023-07-28T22:52:34;4.67;4.00;3.67
72509;PMS5003;60532;56.114;40.350;2023-07-28T22:54:34;5.00;4.00;3.00
72509;PMS5003;60532;56.114;40.350;2023-07-28T22:56:35;7.67;6.33;5.00
72509;PMS5003;60532;56.114;40.350;2023-07-28T22:58:37;6.25;4.25;3.25
72509;PMS5003;60532;56.114;40.350;2023-07-28T23:00:37;2.00;2.00;1.00
72509;PMS5003;60532;56.114;40.350;2023-07-28T23:02:38;6.33;5.67;4.00
72509;PMS5003;60532;56.114;40.350;2023-07-28T23:04:38;6.67;6.67;4.00
72509;PMS5003;60532;56.114;40.350;2023-07-28T23:06:39;7.33;5.00;4.00
72509;PMS5003;60532;56.114;40.350;2023-07-28T23:08:39;10.00;6.00;4.00
72509;PMS5003;60532;56.114;40.350;2023-07-28T23:10:39;7.67;5.00;3.00
72509;PMS5003;60532;56.114;40.350;2023-07-28T23:12:40;6.33;5.67;4.00
72509;PMS5003;60532;56.114;40.350;2023-07-28T23:14:40;5.33;5.33;4.00
72509;PMS5003;60532;56.114;40.350;2023-07-28T23:16:41;12.00;6.00;5.00
72509;PMS5003;60532;56.114;40.350;2023-07-28T23:18:41;5.67;5.33;3.67
72509;PMS5003;60532;56.114;40.350;2023-07-28T23:20:41;7.00;5.33;3.67
72509;PMS5003;60532;56.114;40.350;2023-07-28T23:22:42;6.67;3.67;2.00
72509;PMS5003;60532;56.114;40.350;2023-07-28T23:24:42;6.00;4.00;4.00
72509;PMS5003;60532;56.114;40.350;2023-07-28T23:26:43;5.00;4.67;3.00
72509;PMS5003;60532;56.114;40.350;2023-07-28T23:28:43;6.00;5.00;3.67
72509;PMS5003;60532;56.114;40.350;2023-07-28T23:30:44;5.75;4.25;4.00
72509;PMS5003;60532;56.114;40.350;2023-07-28T23:32:45;4.00;4.00;3.33
72509;PMS5003;60532;56.114;40.350;2023-07-28T23:34:45;4.00;4.00;4.00
72509;PMS5003;60532;56.114;40.350;2023-07-28T23:36:45;6.67;5.33;4.00
72509;PMS5003;60532;56.114;40.350;2023-07-28T23:38:46;4.67;3.00;3.00
72509;PMS5003;60532;56.114;40.350;2023-07-28T23:40:46;5.00;5.00;4.00
72509;PMS5003;60532;56.114;40.350;2023-07-28T23:42:47;7.33;4.33;3.00
72509;PMS5003;60532;56.114;40.350;2023-07-28T23:44:48;4.00;4.00;3.67
72509;PMS5003;60532;56.114;40.350;2023-07-28T23:46:48;6.00;5.00;4.00
72509;PMS5003;60532;56.114;40.350;2023-07-28T23:48:48;4.33;4.33;4.00
72509;PMS5003;60532;56.114;40.350;2023-07-28T23:50:49;4.33;4.33;4.00
72509;PMS5003;60532;56.114;40.350;2023-07-28T23:52:49;3.67;3.67;3.00
72509;PMS5003;60532;56.114;40.350;2023-07-28T23:54:50;5.00;5.00;3.00
72509;PMS5003;60532;56.114;40.350;2023-07-28T23:56:51;5.75;5.75;4.75
72509;PMS5003;60532;56.114;40.350;2023-07-28T23:58:52;7.00;5.00;5.00
